sensor_id;sensor_type;location;lat;lon;timestamp;pressure;altitude;pressure_sealevel;temperature
67434;BMP280;54305;47.950;6.572;2024-02-26T00:00:12;92169.72;;;4.71
67434;BMP280;54305;47.950;6.572;2024-02-26T00:02:37;92168.31;;;4.66
67434;BMP280;54305;47.950;6.572;2024-02-26T00:05:05;92166.84;;;4.78
67434;BMP280;54305;47.950;6.572;2024-02-26T00:07:31;92163.16;;;4.68
67434;BMP280;54305;47.950;6.572;2024-02-26T00:09:56;92157.25;;;4.77
67434;BMP280;54305;47.950;6.572;2024-02-26T00:12:22;92160.03;;;4.77
67434;BMP280;54305;47.950;6.572;2024-02-26T00:14:47;92161.44;;;4.82
67434;BMP280;54305;47.950;6.572;2024-02-26T00:17:14;92158.88;;;4.69
67434;BMP280;54305;47.950;6.572;2024-02-26T00:19:40;92151.34;;;4.57
67434;BMP280;54305;47.950;6.572;2024-02-26T00:22:06;92152.78;;;4.62
67434;BMP280;54305;47.950;6.572;2024-02-26T00:24:31;92170.94;;;4.90
67434;BMP280;54305;47.950;6.572;2024-02-26T00:26:56;92160.19;;;4.81
67434;BMP280;54305;47.950;6.572;2024-02-26T00:29:22;92160.81;;;4.82
67434;BMP280;54305;47.950;6.572;2024-02-26T00:31:48;92162.69;;;4.72
67434;BMP280;54305;47.950;6.572;2024-02-26T00:34:14;92158.00;;;4.71
67434;BMP280;54305;47.950;6.572;2024-02-26T00:36:39;92164.00;;;4.96
67434;BMP280;54305;47.950;6.572;2024-02-26T00:39:04;92170.44;;;4.94
67434;BMP280;54305;47.950;6.572;2024-02-26T00:41:30;92166.34;;;4.82
67434;BMP280;54305;47.950;6.572;2024-02-26T00:43:55;92171.91;;;4.82
67434;BMP280;54305;47.950;6.572;2024-02-26T00:46:20;92163.81;;;4.80
67434;BMP280;54305;47.950;6.572;2024-02-26T00:48:46;92159.06;;;4.85
67434;BMP280;54305;47.950;6.572;2024-02-26T00:51:11;92163.03;;;4.75
67434;BMP280;54305;47.950;6.572;2024-02-26T00:53:37;92162.09;;;4.83
67434;BMP280;54305;47.950;6.572;2024-02-26T00:56:02;92161.72;;;4.92
67434;BMP280;54305;47.950;6.572;2024-02-26T00:58:27;92165.75;;;4.93
67434;BMP280;54305;47.950;6.572;2024-02-26T01:00:53;92160.47;;;4.91
67434;BMP280;54305;47.950;6.572;2024-02-26T01:03:18;92156.69;;;4.88
67434;BMP280;54305;47.950;6.572;2024-02-26T01:05:44;92162.00;;;4.90
67434;BMP280;54305;47.950;6.572;2024-02-26T01:08:10;92165.91;;;4.97
67434;BMP280;54305;47.950;6.572;2024-02-26T01:10:35;92152.00;;;4.86
67434;BMP280;54305;47.950;6.572;2024-02-26T01:13:01;92165.91;;;4.97
67434;BMP280;54305;47.950;6.572;2024-02-26T01:15:27;92163.53;;;5.00
67434;BMP280;54305;47.950;6.572;2024-02-26T01:17:52;92160.28;;;5.04
67434;BMP280;54305;47.950;6.572;2024-02-26T01:20:18;92160.50;;;5.02
67434;BMP280;54305;47.950;6.572;2024-02-26T01:22:44;92159.00;;;5.03
67434;BMP280;54305;47.950;6.572;2024-02-26T01:25:10;92158.38;;;5.02
67434;BMP280;54305;47.950;6.572;2024-02-26T01:27:38;92165.06;;;5.10
67434;BMP280;54305;47.950;6.572;2024-02-26T01:30:06;92153.22;;;5.05
67434;BMP280;54305;47.950;6.572;2024-02-26T01:32:32;92153.78;;;4.94
67434;BMP280;54305;47.950;6.572;2024-02-26T01:34:57;92172.88;;;5.14
67434;BMP280;54305;47.950;6.572;2024-02-26T01:37:23;92168.63;;;5.15
67434;BMP280;54305;47.950;6.572;2024-02-26T01:39:48;92157.53;;;5.15
67434;BMP280;54305;47.950;6.572;2024-02-26T01:42:13;92184.84;;;5.12
67434;BMP280;54305;47.950;6.572;2024-02-26T01:44:39;92181.34;;;5.18
67434;BMP280;54305;47.950;6.572;2024-02-26T01:47:07;92180.13;;;5.28
67434;BMP280;54305;47.950;6.572;2024-02-26T01:49:33;92183.91;;;5.32
67434;BMP280;54305;47.950;6.572;2024-02-26T01:52:01;92189.22;;;5.22
67434;BMP280;54305;47.950;6.572;2024-02-26T01:54:27;92182.41;;;5.33
67434;BMP280;54305;47.950;6.572;2024-02-26T01:56:53;92176.31;;;5.25
67434;BMP280;54305;47.950;6.572;2024-02-26T01:59:19;92198.03;;;5.29
67434;BMP280;54305;47.950;6.572;2024-02-26T02:01:48;92185.44;;;5.31
67434;BMP280;54305;47.950;6.572;2024-02-26T02:04:15;92206.91;;;5.37
67434;BMP280;54305;47.950;6.572;2024-02-26T02:06:41;92199.06;;;5.33
67434;BMP280;54305;47.950;6.572;2024-02-26T02:09:08;92207.38;;;5.21
67434;BMP280;54305;47.950;6.572;2024-02-26T02:11:34;92197.09;;;5.09
67434;BMP280;54305;47.950;6.572;2024-02-26T02:13:59;92196.22;;;5.10
67434;BMP280;54305;47.950;6.572;2024-02-26T02:16:25;92192.06;;;5.05
67434;BMP280;54305;47.950;6.572;2024-02-26T02:18:50;92192.09;;;4.87
67434;BMP280;54305;47.950;6.572;2024-02-26T02:21:16;92184.28;;;4.83
67434;BMP280;54305;47.950;6.572;2024-02-26T02:23:41;92175.34;;;4.65
67434;BMP280;54305;47.950;6.572;2024-02-26T02:26:11;92177.03;;;4.51
67434;BMP280;54305;47.950;6.572;2024-02-26T02:28:37;92173.31;;;4.59
67434;BMP280;54305;47.950;6.572;2024-02-26T02:31:02;92175.28;;;4.71
67434;BMP280;54305;47.950;6.572;2024-02-26T02:33:29;92186.50;;;4.76
67434;BMP280;54305;47.950;6.572;2024-02-26T02:35:54;92168.59;;;4.75
67434;BMP280;54305;47.950;6.572;2024-02-26T02:38:20;92171.59;;;4.73
67434;BMP280;54305;47.950;6.572;2024-02-26T02:40:46;92165.06;;;4.70
67434;BMP280;54305;47.950;6.572;2024-02-26T02:43:11;92163.72;;;4.58
67434;BMP280;54305;47.950;6.572;2024-02-26T02:45:37;92163.06;;;4.57
67434;BMP280;54305;47.950;6.572;2024-02-26T02:48:02;92160.63;;;4.66
67434;BMP280;54305;47.950;6.572;2024-02-26T02:50:28;92162.03;;;4.72
67434;BMP280;54305;47.950;6.572;2024-02-26T02:52:54;92165.31;;;4.79
67434;BMP280;54305;47.950;6.572;2024-02-26T02:55:20;92173.19;;;4.83
67434;BMP280;54305;47.950;6.572;2024-02-26T02:57:45;92163.97;;;4.85
67434;BMP280;54305;47.950;6.572;2024-02-26T03:00:11;92169.13;;;4.82
67434;BMP280;54305;47.950;6.572;2024-02-26T03:02:36;92176.41;;;4.79
67434;BMP280;54305;47.950;6.572;2024-02-26T03:05:03;92159.41;;;4.76
67434;BMP280;54305;47.950;6.572;2024-02-26T03:07:28;92161.03;;;4.80
67434;BMP280;54305;47.950;6.572;2024-02-26T03:09:54;92156.53;;;4.83
67434;BMP280;54305;47.950;6.572;2024-02-26T03:12:20;92158.28;;;4.80
67434;BMP280;54305;47.950;6.572;2024-02-26T03:14:46;92152.09;;;4.79
67434;BMP280;54305;47.950;6.572;2024-02-26T03:17:11;92141.16;;;4.84
67434;BMP280;54305;47.950;6.572;2024-02-26T03:19:37;92139.59;;;4.74
67434;BMP280;54305;47.950;6.572;2024-02-26T03:22:02;92142.34;;;4.74
67434;BMP280;54305;47.950;6.572;2024-02-26T03:24:28;92142.13;;;4.76
67434;BMP280;54305;47.950;6.572;2024-02-26T03:26:53;92148.69;;;4.79
67434;BMP280;54305;47.950;6.572;2024-02-26T03:29:19;92136.31;;;4.67
67434;BMP280;54305;47.950;6.572;2024-02-26T03:31:44;92139.88;;;4.72
67434;BMP280;54305;47.950;6.572;2024-02-26T03:34:09;92143.09;;;4.68
67434;BMP280;54305;47.950;6.572;2024-02-26T03:36:37;92136.53;;;4.65
67434;BMP280;54305;47.950;6.572;2024-02-26T03:39:02;92146.56;;;4.79
67434;BMP280;54305;47.950;6.572;2024-02-26T03:41:33;92150.75;;;4.85
67434;BMP280;54305;47.950;6.572;2024-02-26T03:43:58;92143.94;;;4.84
67434;BMP280;54305;47.950;6.572;2024-02-26T03:46:24;92131.28;;;4.74
67434;BMP280;54305;47.950;6.572;2024-02-26T03:48:49;92141.16;;;4.84
67434;BMP280;54305;47.950;6.572;2024-02-26T03:51:14;92142.13;;;4.76
67434;BMP280;54305;47.950;6.572;2024-02-26T03:53:40;92131.66;;;4.76
67434;BMP280;54305;47.950;6.572;2024-02-26T03:56:06;92134.59;;;4.81
67434;BMP280;54305;47.950;6.572;2024-02-26T03:58:32;92133.22;;;4.87
67434;BMP280;54305;47.950;6.572;2024-02-26T04:00:58;92133.22;;;4.87
67434;BMP280;54305;47.950;6.572;2024-02-26T04:03:23;92150.28;;;4.89
67434;BMP280;54305;47.950;6.572;2024-02-26T04:05:49;92145.97;;;4.90
67434;BMP280;54305;47.950;6.572;2024-02-26T04:08:14;92151.91;;;4.93
67434;BMP280;54305;47.950;6.572;2024-02-26T04:10:39;92143.47;;;4.99
67434;BMP280;54305;47.950;6.572;2024-02-26T04:13:07;92141.56;;;4.98
67434;BMP280;54305;47.950;6.572;2024-02-26T04:15:32;92133.72;;;4.82
67434;BMP280;54305;47.950;6.572;2024-02-26T04:17:58;92137.50;;;4.86
67434;BMP280;54305;47.950;6.572;2024-02-26T04:20:23;92143.75;;;5.08
67434;BMP280;54305;47.950;6.572;2024-02-26T04:22:49;92128.03;;;4.78
67434;BMP280;54305;47.950;6.572;2024-02-26T04:25:14;92134.31;;;4.72
67434;BMP280;54305;47.950;6.572;2024-02-26T04:27:40;92129.13;;;4.74
67434;BMP280;54305;47.950;6.572;2024-02-26T04:30:06;92132.69;;;4.79
67434;BMP280;54305;47.950;6.572;2024-02-26T04:32:32;92134.34;;;4.83
67434;BMP280;54305;47.950;6.572;2024-02-26T04:34:57;92128.72;;;4.90
67434;BMP280;54305;47.950;6.572;2024-02-26T04:37:22;92124.69;;;4.89
67434;BMP280;54305;47.950;6.572;2024-02-26T04:39:48;92136.91;;;4.96
67434;BMP280;54305;47.950;6.572;2024-02-26T04:42:13;92143.47;;;4.99
67434;BMP280;54305;47.950;6.572;2024-02-26T04:44:39;92133.34;;;4.91
67434;BMP280;54305;47.950;6.572;2024-02-26T04:47:04;92136.13;;;4.91
67434;BMP280;54305;47.950;6.572;2024-02-26T04:49:30;92151.72;;;5.06
67434;BMP280;54305;47.950;6.572;2024-02-26T04:51:55;92157.09;;;5.01
67434;BMP280;54305;47.950;6.572;2024-02-26T04:54:21;92151.72;;;5.06
67434;BMP280;54305;47.950;6.572;2024-02-26T04:56:46;92157.59;;;4.97
67434;BMP280;54305;47.950;6.572;2024-02-26T04:59:12;92167.19;;;5.09
67434;BMP280;54305;47.950;6.572;2024-02-26T05:01:37;92170.50;;;5.05
67434;BMP280;54305;47.950;6.572;2024-02-26T05:04:03;92171.47;;;5.08
67434;BMP280;54305;47.950;6.572;2024-02-26T05:06:29;92170.53;;;5.16
67434;BMP280;54305;47.950;6.572;2024-02-26T05:08:54;92169.75;;;5.11
67434;BMP280;54305;47.950;6.572;2024-02-26T05:11:19;92169.00;;;5.17
67434;BMP280;54305;47.950;6.572;2024-02-26T05:13:45;92169.75;;;5.11
67434;BMP280;54305;47.950;6.572;2024-02-26T05:16:11;92170.97;;;5.01
67434;BMP280;54305;47.950;6.572;2024-02-26T05:18:36;92164.94;;;5.05
67434;BMP280;54305;47.950;6.572;2024-02-26T05:21:01;92159.66;;;5.14
67434;BMP280;54305;47.950;6.572;2024-02-26T05:23:28;92159.97;;;4.95
67434;BMP280;54305;47.950;6.572;2024-02-26T05:25:54;92156.97;;;5.08
67434;BMP280;54305;47.950;6.572;2024-02-26T05:28:19;92171.38;;;5.15
67434;BMP280;54305;47.950;6.572;2024-02-26T05:30:45;92171.22;;;4.99
67434;BMP280;54305;47.950;6.572;2024-02-26T05:33:11;92172.00;;;5.04
67434;BMP280;54305;47.950;6.572;2024-02-26T05:35:37;92173.53;;;5.14
67434;BMP280;54305;47.950;6.572;2024-02-26T05:38:02;92173.50;;;5.03
67434;BMP280;54305;47.950;6.572;2024-02-26T05:40:28;92169.69;;;4.89
67434;BMP280;54305;47.950;6.572;2024-02-26T05:42:54;92173.19;;;4.83
67434;BMP280;54305;47.950;6.572;2024-02-26T05:45:19;92175.22;;;4.89
67434;BMP280;54305;47.950;6.572;2024-02-26T05:47:44;92174.19;;;4.86
67434;BMP280;54305;47.950;6.572;2024-02-26T05:50:10;92174.72;;;4.93
67434;BMP280;54305;47.950;6.572;2024-02-26T05:52:37;92171.72;;;4.95
67434;BMP280;54305;47.950;6.572;2024-02-26T05:55:04;92170.31;;;4.90
67434;BMP280;54305;47.950;6.572;2024-02-26T05:57:29;92177.00;;;4.97
67434;BMP280;54305;47.950;6.572;2024-02-26T05:59:55;92176.75;;;4.99
67434;BMP280;54305;47.950;6.572;2024-02-26T06:02:20;92175.50;;;4.98
67434;BMP280;54305;47.950;6.572;2024-02-26T06:04:45;92177.25;;;4.95
67434;BMP280;54305;47.950;6.572;2024-02-26T06:07:12;92166.69;;;5.02
67434;BMP280;54305;47.950;6.572;2024-02-26T06:09:37;92174.22;;;4.97
67434;BMP280;54305;47.950;6.572;2024-02-26T06:12:03;92176.28;;;5.03
67434;BMP280;54305;47.950;6.572;2024-02-26T06:14:28;92177.31;;;5.06
67434;BMP280;54305;47.950;6.572;2024-02-26T06:16:53;92174.22;;;4.97
67434;BMP280;54305;47.950;6.572;2024-02-26T06:19:19;92174.94;;;4.91
67434;BMP280;54305;47.950;6.572;2024-02-26T06:21:44;92173.59;;;4.97
67434;BMP280;54305;47.950;6.572;2024-02-26T06:24:10;92167.72;;;5.05
67434;BMP280;54305;47.950;6.572;2024-02-26T06:26:35;92177.91;;;5.07
67434;BMP280;54305;47.950;6.572;2024-02-26T06:29:00;92185.09;;;4.99
67434;BMP280;54305;47.950;6.572;2024-02-26T06:31:26;92186.88;;;5.07
67434;BMP280;54305;47.950;6.572;2024-02-26T06:33:53;92187.22;;;4.99
67434;BMP280;54305;47.950;6.572;2024-02-26T06:36:19;92185.31;;;4.97
67434;BMP280;54305;47.950;6.572;2024-02-26T06:38:44;92187.38;;;5.03
67434;BMP280;54305;47.950;6.572;2024-02-26T06:41:09;92188.00;;;5.04
67434;BMP280;54305;47.950;6.572;2024-02-26T06:43:36;92197.72;;;5.09
67434;BMP280;54305;47.950;6.572;2024-02-26T06:46:02;92196.97;;;5.04
67434;BMP280;54305;47.950;6.572;2024-02-26T06:48:27;92195.69;;;5.03
67434;BMP280;54305;47.950;6.572;2024-02-26T06:50:52;92194.69;;;5.00
67434;BMP280;54305;47.950;6.572;2024-02-26T06:53:18;92194.56;;;5.07
67434;BMP280;54305;47.950;6.572;2024-02-26T06:55:44;92181.91;;;4.97
67434;BMP280;54305;47.950;6.572;2024-02-26T06:58:09;92200.00;;;5.13
67434;BMP280;54305;47.950;6.572;2024-02-26T07:00:35;92200.00;;;5.13
67434;BMP280;54305;47.950;6.572;2024-02-26T07:03:00;92197.41;;;5.29
67434;BMP280;54305;47.950;6.572;2024-02-26T07:05:27;92203.47;;;5.36
67434;BMP280;54305;47.950;6.572;2024-02-26T07:07:52;92200.34;;;5.34
67434;BMP280;54305;47.950;6.572;2024-02-26T07:10:18;92212.44;;;5.37
67434;BMP280;54305;47.950;6.572;2024-02-26T07:12:43;92217.38;;;5.36
67434;BMP280;54305;47.950;6.572;2024-02-26T07:15:09;92218.41;;;5.50
67434;BMP280;54305;47.950;6.572;2024-02-26T07:17:35;92229.66;;;5.55
67434;BMP280;54305;47.950;6.572;2024-02-26T07:20:00;92226.91;;;5.66
67434;BMP280;54305;47.950;6.572;2024-02-26T07:22:25;92223.47;;;5.54
67434;BMP280;54305;47.950;6.572;2024-02-26T07:24:51;92227.13;;;5.53
67434;BMP280;54305;47.950;6.572;2024-02-26T07:27:18;92230.56;;;5.64
67434;BMP280;54305;47.950;6.572;2024-02-26T07:29:43;92242.28;;;5.65
67434;BMP280;54305;47.950;6.572;2024-02-26T07:32:08;92240.53;;;5.68
67434;BMP280;54305;47.950;6.572;2024-02-26T07:34:34;92246.50;;;5.82
67434;BMP280;54305;47.950;6.572;2024-02-26T07:37:00;92241.03;;;5.75
67434;BMP280;54305;47.950;6.572;2024-02-26T07:39:26;92260.25;;;5.77
67434;BMP280;54305;47.950;6.572;2024-02-26T07:41:51;92258.22;;;5.82
67434;BMP280;54305;47.950;6.572;2024-02-26T07:44:18;92259.09;;;5.81
67434;BMP280;54305;47.950;6.572;2024-02-26T07:46:44;92273.53;;;5.99
67434;BMP280;54305;47.950;6.572;2024-02-26T07:49:09;92279.84;;;6.04
67434;BMP280;54305;47.950;6.572;2024-02-26T07:51:35;92277.44;;;5.84
67434;BMP280;54305;47.950;6.572;2024-02-26T07:54:00;92281.63;;;6.01
67434;BMP280;54305;47.950;6.572;2024-02-26T07:56:26;92272.63;;;5.89
67434;BMP280;54305;47.950;6.572;2024-02-26T07:58:51;92283.50;;;6.02
67434;BMP280;54305;47.950;6.572;2024-02-26T08:01:17;92282.75;;;5.97
67434;BMP280;54305;47.950;6.572;2024-02-26T08:03:42;92273.16;;;6.07
67434;BMP280;54305;47.950;6.572;2024-02-26T08:06:08;92275.03;;;5.98
67434;BMP280;54305;47.950;6.572;2024-02-26T08:08:33;92279.00;;;6.28
67434;BMP280;54305;47.950;6.572;2024-02-26T08:10:59;92290.09;;;6.16
67434;BMP280;54305;47.950;6.572;2024-02-26T08:13:24;92286.06;;;6.27
67434;BMP280;54305;47.950;6.572;2024-02-26T08:15:51;92286.81;;;6.32
67434;BMP280;54305;47.950;6.572;2024-02-26T08:18:17;92298.31;;;6.45
67434;BMP280;54305;47.950;6.572;2024-02-26T08:20:43;92301.09;;;6.45
67434;BMP280;54305;47.950;6.572;2024-02-26T08:23:08;92293.38;;;6.68
67434;BMP280;54305;47.950;6.572;2024-02-26T08:25:34;92285.28;;;6.77
67434;BMP280;54305;47.950;6.572;2024-02-26T08:27:59;92293.09;;;6.92
67434;BMP280;54305;47.950;6.572;2024-02-26T08:30:25;92289.16;;;6.96
67434;BMP280;54305;47.950;6.572;2024-02-26T08:32:50;92298.38;;;6.94
67434;BMP280;54305;47.950;6.572;2024-02-26T08:35:16;92293.81;;;7.08
67434;BMP280;54305;47.950;6.572;2024-02-26T08:37:44;92300.38;;;7.11
67434;BMP280;54305;47.950;6.572;2024-02-26T08:40:11;92294.91;;;7.16
67434;BMP280;54305;47.950;6.572;2024-02-26T08:42:36;92306.53;;;7.23
67434;BMP280;54305;47.950;6.572;2024-02-26T08:45:02;92306.72;;;7.05
67434;BMP280;54305;47.950;6.572;2024-02-26T08:47:28;92306.53;;;7.23
67434;BMP280;54305;47.950;6.572;2024-02-26T08:49:54;92305.09;;;7.40
67434;BMP280;54305;47.950;6.572;2024-02-26T08:52:19;92317.06;;;7.49
67434;BMP280;54305;47.950;6.572;2024-02-26T08:54:45;92304.41;;;7.50
67434;BMP280;54305;47.950;6.572;2024-02-26T08:57:10;92309.09;;;7.52
67434;BMP280;54305;47.950;6.572;2024-02-26T08:59:36;92324.97;;;7.69
67434;BMP280;54305;47.950;6.572;2024-02-26T09:02:01;92319.50;;;7.74
67434;BMP280;54305;47.950;6.572;2024-02-26T09:04:27;92321.41;;;7.75
67434;BMP280;54305;47.950;6.572;2024-02-26T09:06:53;92324.53;;;8.04
67434;BMP280;54305;47.950;6.572;2024-02-26T09:09:19;92327.00;;;8.18
67434;BMP280;54305;47.950;6.572;2024-02-26T09:11:45;92337.34;;;8.24
67434;BMP280;54305;47.950;6.572;2024-02-26T09:14:11;92334.28;;;8.26
67434;BMP280;54305;47.950;6.572;2024-02-26T09:16:36;92336.00;;;8.34
67434;BMP280;54305;47.950;6.572;2024-02-26T09:19:01;92340.66;;;8.20
67434;BMP280;54305;47.950;6.572;2024-02-26T09:21:28;92341.25;;;8.04
67434;BMP280;54305;47.950;6.572;2024-02-26T09:23:53;92347.34;;;8.00
67434;BMP280;54305;47.950;6.572;2024-02-26T09:26:19;92344.19;;;8.25
67434;BMP280;54305;47.950;6.572;2024-02-26T09:28:45;92342.66;;;8.41
67434;BMP280;54305;47.950;6.572;2024-02-26T09:31:10;92353.00;;;8.32
67434;BMP280;54305;47.950;6.572;2024-02-26T09:33:36;92347.06;;;8.45
67434;BMP280;54305;47.950;6.572;2024-02-26T09:36:02;92357.78;;;8.69
67434;BMP280;54305;47.950;6.572;2024-02-26T09:38:28;92356.72;;;8.77
67434;BMP280;54305;47.950;6.572;2024-02-26T09:40:57;92360.84;;;8.67
67434;BMP280;54305;47.950;6.572;2024-02-26T09:43:23;92367.84;;;8.61
67434;BMP280;54305;47.950;6.572;2024-02-26T09:45:53;92373.81;;;8.64
67434;BMP280;54305;47.950;6.572;2024-02-26T09:48:19;92371.38;;;8.82
67434;BMP280;54305;47.950;6.572;2024-02-26T09:50:45;92372.75;;;8.88
67434;BMP280;54305;47.950;6.572;2024-02-26T09:53:12;92376.59;;;8.80
67434;BMP280;54305;47.950;6.572;2024-02-26T09:55:37;92382.19;;;8.95
67434;BMP280;54305;47.950;6.572;2024-02-26T09:58:05;92379.91;;;8.91
67434;BMP280;54305;47.950;6.572;2024-02-26T10:00:31;92387.38;;;9.08
67434;BMP280;54305;47.950;6.572;2024-02-26T10:03:03;92392.97;;;9.08
67434;BMP280;54305;47.950;6.572;2024-02-26T10:05:29;92390.63;;;9.16
67434;BMP280;54305;47.950;6.572;2024-02-26T10:07:57;92401.03;;;9.42
67434;BMP280;54305;47.950;6.572;2024-02-26T10:10:25;92403.53;;;9.80
67434;BMP280;54305;47.950;6.572;2024-02-26T10:12:52;92402.78;;;10.10
67434;BMP280;54305;47.950;6.572;2024-02-26T10:15:18;92399.00;;;9.87
67434;BMP280;54305;47.950;6.572;2024-02-26T10:17:43;92407.09;;;10.09
67434;BMP280;54305;47.950;6.572;2024-02-26T10:20:13;92402.19;;;10.35
67434;BMP280;54305;47.950;6.572;2024-02-26T10:22:42;92404.84;;;10.26
67434;BMP280;54305;47.950;6.572;2024-02-26T10:25:08;92403.19;;;9.97
67434;BMP280;54305;47.950;6.572;2024-02-26T10:27:34;92415.06;;;10.02
67434;BMP280;54305;47.950;6.572;2024-02-26T10:30:03;92419.13;;;9.83
67434;BMP280;54305;47.950;6.572;2024-02-26T10:32:29;92415.75;;;9.67
67434;BMP280;54305;47.950;6.572;2024-02-26T10:34:55;92414.50;;;9.66
67434;BMP280;54305;47.950;6.572;2024-02-26T10:37:22;92412.53;;;9.60
67434;BMP280;54305;47.950;6.572;2024-02-26T10:39:47;92410.69;;;9.63
67434;BMP280;54305;47.950;6.572;2024-02-26T10:42:13;92426.38;;;9.71
67434;BMP280;54305;47.950;6.572;2024-02-26T10:44:40;92428.41;;;9.61
67434;BMP280;54305;47.950;6.572;2024-02-26T10:47:07;92429.56;;;9.58
67434;BMP280;54305;47.950;6.572;2024-02-26T10:49:34;92430.69;;;9.34
67434;BMP280;54305;47.950;6.572;2024-02-26T10:52:01;92433.03;;;9.27
67434;BMP280;54305;47.950;6.572;2024-02-26T10:54:29;92432.97;;;9.23
67434;BMP280;54305;47.950;6.572;2024-02-26T10:56:56;92430.81;;;9.07
67434;BMP280;54305;47.950;6.572;2024-02-26T10:59:23;92436.03;;;9.21
67434;BMP280;54305;47.950;6.572;2024-02-26T11:01:48;92427.72;;;9.25
67434;BMP280;54305;47.950;6.572;2024-02-26T11:04:16;92438.44;;;9.18
67434;BMP280;54305;47.950;6.572;2024-02-26T11:06:42;92436.19;;;9.30
67434;BMP280;54305;47.950;6.572;2024-02-26T11:09:11;92440.94;;;9.51
67434;BMP280;54305;47.950;6.572;2024-02-26T11:11:38;92448.09;;;9.71
67434;BMP280;54305;47.950;6.572;2024-02-26T11:14:06;92449.25;;;9.83
67434;BMP280;54305;47.950;6.572;2024-02-26T11:16:34;92455.41;;;9.99
67434;BMP280;54305;47.950;6.572;2024-02-26T11:19:01;92443.19;;;10.11
67434;BMP280;54305;47.950;6.572;2024-02-26T11:21:27;92460.75;;;10.21
67434;BMP280;54305;47.950;6.572;2024-02-26T11:23:56;92451.28;;;10.13
67434;BMP280;54305;47.950;6.572;2024-02-26T11:26:23;92450.88;;;10.27
67434;BMP280;54305;47.950;6.572;2024-02-26T11:28:49;92455.69;;;10.37
67434;BMP280;54305;47.950;6.572;2024-02-26T11:31:16;92456.28;;;10.58
67434;BMP280;54305;47.950;6.572;2024-02-26T11:33:43;92452.97;;;10.87
67434;BMP280;54305;47.950;6.572;2024-02-26T11:36:09;92449.97;;;10.98
67434;BMP280;54305;47.950;6.572;2024-02-26T11:38:35;92455.75;;;11.11
67434;BMP280;54305;47.950;6.572;2024-02-26T11:41:01;92454.31;;;11.21
67434;BMP280;54305;47.950;6.572;2024-02-26T11:44:03;92460.16;;;11.44
67434;BMP280;54305;47.950;6.572;2024-02-26T11:46:42;92450.84;;;11.80
67434;BMP280;54305;47.950;6.572;2024-02-26T11:49:37;92446.53;;;11.51
67434;BMP280;54305;47.950;6.572;2024-02-26T11:52:05;92452.09;;;11.47
67434;BMP280;54305;47.950;6.572;2024-02-26T11:54:48;92453.94;;;12.16
67434;BMP280;54305;47.950;6.572;2024-02-26T11:57:24;92447.41;;;12.13
67434;BMP280;54305;47.950;6.572;2024-02-26T11:59:51;92451.16;;;12.16
67434;BMP280;54305;47.950;6.572;2024-02-26T12:02:45;92449.22;;;12.10
67434;BMP280;54305;47.950;6.572;2024-02-26T12:07:48;92449.63;;;11.83
67434;BMP280;54305;47.950;6.572;2024-02-26T12:10:25;92448.91;;;11.69
67434;BMP280;54305;47.950;6.572;2024-02-26T12:13:05;92453.91;;;11.73
67434;BMP280;54305;47.950;6.572;2024-02-26T12:15:36;92450.34;;;11.93
67434;BMP280;54305;47.950;6.572;2024-02-26T12:18:03;92441.44;;;11.72
67434;BMP280;54305;47.950;6.572;2024-02-26T12:20:29;92452.53;;;11.58
67434;BMP280;54305;47.950;6.572;2024-02-26T12:22:55;92458.03;;;11.79
67434;BMP280;54305;47.950;6.572;2024-02-26T12:25:23;92449.84;;;11.43
67434;BMP280;54305;47.950;6.572;2024-02-26T12:27:50;92450.94;;;11.93
67434;BMP280;54305;47.950;6.572;2024-02-26T12:30:16;92451.31;;;12.39
67434;BMP280;54305;47.950;6.572;2024-02-26T12:32:43;92453.84;;;12.45
67434;BMP280;54305;47.950;6.572;2024-02-26T12:35:08;92458.78;;;12.36
67434;BMP280;54305;47.950;6.572;2024-02-26T12:37:34;92454.34;;;13.59
67434;BMP280;54305;47.950;6.572;2024-02-26T12:40:04;92474.06;;;14.13
67434;BMP280;54305;47.950;6.572;2024-02-26T12:42:32;92456.41;;;14.99
67434;BMP280;54305;47.950;6.572;2024-02-26T12:44:58;92446.47;;;15.96
67434;BMP280;54305;47.950;6.572;2024-02-26T12:47:24;92462.41;;;16.02
67434;BMP280;54305;47.950;6.572;2024-02-26T12:49:49;92453.34;;;15.53
67434;BMP280;54305;47.950;6.572;2024-02-26T12:52:16;92458.69;;;15.46
67434;BMP280;54305;47.950;6.572;2024-02-26T12:54:42;92462.25;;;15.29
67434;BMP280;54305;47.950;6.572;2024-02-26T12:57:08;92452.84;;;15.21
67434;BMP280;54305;47.950;6.572;2024-02-26T12:59:35;92457.50;;;14.25
67434;BMP280;54305;47.950;6.572;2024-02-26T13:02:01;92454.84;;;15.00
67434;BMP280;54305;47.950;6.572;2024-02-26T13:04:29;92451.94;;;15.75
67434;BMP280;54305;47.950;6.572;2024-02-26T13:06:54;92449.25;;;15.57
67434;BMP280;54305;47.950;6.572;2024-02-26T13:09:20;92457.22;;;15.29
67434;BMP280;54305;47.950;6.572;2024-02-26T13:11:53;92461.00;;;16.23
67434;BMP280;54305;47.950;6.572;2024-02-26T13:14:22;92452.88;;;16.51
67434;BMP280;54305;47.950;6.572;2024-02-26T13:16:58;92461.13;;;16.44
67434;BMP280;54305;47.950;6.572;2024-02-26T13:19:24;92468.81;;;16.57
67434;BMP280;54305;47.950;6.572;2024-02-26T13:21:49;92467.00;;;16.17
67434;BMP280;54305;47.950;6.572;2024-02-26T13:24:15;92453.22;;;15.72
67434;BMP280;54305;47.950;6.572;2024-02-26T13:26:40;92452.50;;;15.85
67434;BMP280;54305;47.950;6.572;2024-02-26T13:29:05;92456.19;;;15.44
67434;BMP280;54305;47.950;6.572;2024-02-26T13:31:31;92457.06;;;14.90
67434;BMP280;54305;47.950;6.572;2024-02-26T13:33:57;92449.97;;;13.78
67434;BMP280;54305;47.950;6.572;2024-02-26T13:36:23;92453.06;;;13.44
67434;BMP280;54305;47.950;6.572;2024-02-26T13:38:52;92452.22;;;12.89
67434;BMP280;54305;47.950;6.572;2024-02-26T13:41:21;92454.91;;;12.62
67434;BMP280;54305;47.950;6.572;2024-02-26T13:43:47;92453.34;;;12.63
67434;BMP280;54305;47.950;6.572;2024-02-26T13:46:12;92448.50;;;12.39
67434;BMP280;54305;47.950;6.572;2024-02-26T13:48:40;92460.44;;;12.48
67434;BMP280;54305;47.950;6.572;2024-02-26T13:51:06;92453.25;;;12.49
67434;BMP280;54305;47.950;6.572;2024-02-26T13:53:31;92455.72;;;12.42
67434;BMP280;54305;47.950;6.572;2024-02-26T13:55:57;92458.84;;;12.45
67434;BMP280;54305;47.950;6.572;2024-02-26T13:58:24;92460.09;;;12.46
67434;BMP280;54305;47.950;6.572;2024-02-26T14:00:50;92465.59;;;12.27
67434;BMP280;54305;47.950;6.572;2024-02-26T14:03:16;92464.69;;;11.95
67434;BMP280;54305;47.950;6.572;2024-02-26T14:05:41;92466.56;;;11.92
67434;BMP280;54305;47.950;6.572;2024-02-26T14:08:07;92471.28;;;11.98
67434;BMP280;54305;47.950;6.572;2024-02-26T14:10:32;92480.22;;;11.90
67434;BMP280;54305;47.950;6.572;2024-02-26T14:12:58;92480.69;;;11.72
67434;BMP280;54305;47.950;6.572;2024-02-26T14:15:24;92477.66;;;11.79